createdAt,value
2022-10-11T00:00:14.125Z,53.38
2022-10-11T00:06:59.640Z,53.63
2022-10-11T00:13:47.645Z,53.85
2022-10-11T00:20:33.061Z,53.47
2022-10-11T00:27:18.529Z,53.25
2022-10-11T00:34:06.482Z,53.27
2022-10-11T00:40:51.812Z,53.69
2022-10-11T00:47:37.202Z,53.09
2022-10-11T00:54:29.910Z,53.37
2022-10-11T01:01:15.722Z,53.35
2022-10-11T01:08:03.604Z,53.31
2022-10-11T01:15:12.000Z,53.53
2022-10-11T01:22:11.967Z,53.27
2022-10-11T01:29:11.638Z,53.27
2022-10-11T01:36:09.843Z,53.38
2022-10-11T01:42:57.319Z,53.47
2022-10-11T01:49:42.824Z,53.25
2022-10-11T01:57:03.472Z,53.45
2022-10-11T02:03:57.409Z,53.54
2022-10-11T02:10:49.299Z,53.34
2022-10-11T02:17:42.244Z,53.18
2022-10-11T02:24:33.376Z,53.16
2022-10-11T02:31:21.440Z,53.36
2022-10-11T02:38:17.771Z,53.13
2022-10-11T03:05:51.789Z,53.33
2022-10-11T03:12:37.502Z,52.80
2022-10-11T03:19:22.983Z,52.89
2022-10-11T03:26:10.995Z,52.53
2022-10-11T03:32:56.427Z,52.47
2022-10-11T03:39:41.972Z,52.04
2022-10-11T03:46:29.909Z,52.03
2022-10-11T03:53:15.577Z,51.42
2022-10-11T04:00:00.913Z,51.71
2022-10-11T04:06:53.597Z,51.46
2022-10-11T04:13:39.684Z,50.81
2022-10-11T04:20:25.133Z,50.70
2022-10-11T04:27:13.115Z,50.81
2022-10-11T04:33:58.429Z,50.62
2022-10-11T04:40:43.761Z,50.40
2022-10-11T04:47:31.793Z,50.37
2022-10-11T04:54:17.781Z,50.42
2022-10-11T05:01:04.808Z,50.35
2022-10-11T05:07:52.764Z,50.18
2022-10-11T05:14:38.334Z,49.88
2022-10-11T05:21:26.595Z,49.89
2022-10-11T05:28:14.607Z,50.29
2022-10-11T05:35:00.431Z,49.89
2022-10-11T05:41:47.576Z,49.72
2022-10-11T05:48:36.106Z,49.56
2022-10-11T05:55:21.435Z,49.94
2022-10-11T06:02:06.917Z,49.77
2022-10-11T06:08:54.969Z,49.63
2022-10-11T06:15:42.823Z,49.52
2022-10-11T06:22:28.163Z,49.79
2022-10-11T06:29:16.074Z,49.71
2022-10-11T06:36:02.872Z,49.58
2022-10-11T06:42:51.745Z,49.84
2022-10-11T06:49:39.884Z,49.83
2022-10-11T06:56:25.627Z,50.07
2022-10-11T07:03:11.766Z,49.93
2022-10-11T07:09:59.843Z,50.33
2022-10-11T07:16:45.168Z,50.13
2022-10-11T07:23:30.476Z,50.24
2022-10-11T07:30:18.674Z,50.24
2022-10-11T07:37:06.867Z,50.23
2022-10-11T07:43:52.313Z,50.67
2022-10-11T07:50:40.669Z,50.86
2022-10-11T07:57:26.080Z,50.93
2022-10-11T08:04:12.525Z,50.93
2022-10-11T08:11:00.750Z,51.00
2022-10-11T08:17:46.356Z,50.99
2022-10-11T08:24:37.326Z,50.65
2022-10-11T08:31:26.530Z,50.96
2022-10-11T08:38:11.945Z,50.71
2022-10-11T08:45:10.979Z,50.56
2022-10-11T08:52:04.714Z,50.47
2022-10-11T08:58:57.651Z,50.48
2022-10-11T09:06:00.935Z,50.24
2022-10-11T09:12:59.988Z,50.09
2022-10-11T09:20:09.754Z,49.85
2022-10-11T09:27:00.943Z,49.70
2022-10-11T09:33:52.443Z,49.73
2022-10-11T09:40:52.934Z,49.61
2022-10-11T09:47:38.337Z,49.45
2022-10-11T09:54:42.044Z,49.32
2022-10-11T10:01:30.917Z,48.97
2022-10-11T10:08:27.646Z,49.00
2022-10-11T10:15:23.125Z,48.73
2022-10-11T10:22:08.821Z,48.36
2022-10-11T10:29:05.948Z,48.21
2022-10-11T10:35:58.256Z,47.80
2022-10-11T10:42:43.853Z,47.96
2022-10-11T10:49:54.749Z,47.80
2022-10-11T10:56:50.900Z,47.41
2022-10-11T11:03:44.685Z,47.21
2022-10-11T11:10:37.396Z,46.96
2022-10-11T11:17:39.107Z,47.07
2022-10-11T11:24:49.349Z,47.11
2022-10-11T11:32:11.600Z,46.99
2022-10-11T11:39:05.257Z,47.00
2022-10-11T11:45:58.173Z,46.63
2022-10-11T11:52:48.612Z,46.10
2022-10-11T11:59:43.507Z,46.02
2022-10-11T12:06:33.896Z,45.54
2022-10-11T12:13:29.720Z,45.64
2022-10-11T12:20:29.453Z,45.42
2022-10-11T12:27:40.034Z,45.04
2022-10-11T12:34:38.618Z,44.82
2022-10-11T12:41:53.802Z,44.84
2022-10-11T12:48:50.782Z,44.37
2022-10-11T12:55:52.012Z,44.47
2022-10-11T13:02:45.211Z,43.93
2022-10-11T13:09:34.428Z,44.19
2022-10-11T13:16:23.857Z,44.08
2022-10-11T13:23:27.124Z,43.85
2022-10-11T13:30:21.735Z,43.37
2022-10-11T13:37:07.868Z,42.98
2022-10-11T13:43:56.047Z,43.70
2022-10-11T13:50:46.171Z,43.16
2022-10-11T13:57:41.161Z,43.05
2022-10-11T14:04:30.228Z,43.16
2022-10-11T14:11:17.420Z,42.60
2022-10-11T14:18:05.485Z,43.08
2022-10-11T14:24:53.483Z,42.46
2022-10-11T14:31:41.676Z,42.06
2022-10-11T14:38:27.521Z,41.93
2022-10-11T14:45:15.750Z,41.74
2022-10-11T14:52:02.320Z,41.72
2022-10-11T14:58:48.053Z,41.79
2022-10-11T15:05:36.679Z,41.89
2022-10-11T15:12:22.294Z,41.54
2022-10-11T15:19:07.863Z,41.84
2022-10-11T15:25:55.821Z,41.82
2022-10-11T15:32:41.197Z,41.62
2022-10-11T15:39:31.889Z,41.59
2022-10-11T15:46:23.194Z,41.13
2022-10-11T15:53:11.738Z,41.17
2022-10-11T15:59:57.071Z,40.79
2022-10-11T16:06:45.188Z,40.76
2022-10-11T16:13:30.605Z,40.98
2022-10-11T16:20:18.699Z,40.65
2022-10-11T16:27:06.745Z,40.78
2022-10-11T16:33:53.656Z,40.77
2022-10-11T16:40:41.115Z,40.89
2022-10-11T16:47:29.185Z,40.93
2022-10-11T16:54:19.983Z,40.66
2022-10-11T17:01:06.570Z,40.92
2022-10-11T17:07:54.372Z,40.71
2022-10-11T17:14:40.797Z,41.34
2022-10-11T17:21:26.431Z,41.33
2022-10-11T17:28:15.108Z,41.81
2022-10-11T17:35:02.900Z,41.85
2022-10-11T17:41:49.324Z,42.10
2022-10-11T17:48:39.410Z,42.37
2022-10-11T17:55:24.845Z,41.96
2022-10-11T18:02:12.084Z,42.65
2022-10-11T18:09:03.453Z,42.42
2022-10-11T18:15:53.387Z,42.57
2022-10-11T18:22:39.112Z,43.04
2022-10-11T18:29:27.109Z,42.99
2022-10-11T18:36:13.797Z,42.88
2022-10-11T18:42:59.719Z,43.28
2022-10-11T18:49:47.948Z,43.22
2022-10-11T18:56:37.016Z,43.01
2022-10-11T19:03:22.556Z,43.15
2022-10-11T19:10:11.957Z,43.44
2022-10-11T19:16:59.016Z,42.98
2022-10-11T19:23:46.921Z,43.07
2022-10-11T19:30:35.440Z,42.92
2022-10-11T19:37:21.525Z,43.01
2022-10-11T19:44:07.654Z,42.94
2022-10-11T19:50:55.700Z,42.85
2022-10-11T19:57:41.064Z,42.84
2022-10-11T20:04:51.567Z,43.16
2022-10-11T20:11:34.476Z,43.37
2022-10-11T20:18:19.856Z,43.20
2022-10-11T20:25:05.328Z,43.53
2022-10-11T20:31:53.403Z,43.27
2022-10-11T20:38:41.816Z,43.14
2022-10-11T20:45:27.205Z,43.28
2022-10-11T20:52:15.172Z,43.68
2022-10-11T20:59:01.910Z,43.48
2022-10-11T21:05:47.329Z,43.31
2022-10-11T21:12:35.723Z,43.61
2022-10-11T21:19:21.299Z,44.03
2022-10-11T21:26:08.716Z,43.88
2022-10-11T21:32:57.652Z,44.35
2022-10-11T21:39:43.005Z,44.33
2022-10-11T21:53:39.135Z,44.21
2022-10-11T22:00:24.818Z,44.39
2022-10-11T22:07:10.177Z,44.30
2022-10-11T22:13:58.084Z,44.45
2022-10-11T22:20:43.478Z,44.50
2022-10-11T22:27:28.956Z,44.35
2022-10-11T22:34:16.977Z,44.59
2022-10-11T22:41:02.740Z,44.85
2022-10-11T22:47:48.109Z,44.64
2022-10-11T22:54:36.081Z,44.39
2022-10-11T23:01:21.384Z,44.53
2022-10-11T23:08:06.800Z,44.58
2022-10-11T23:14:54.874Z,45.07
2022-10-11T23:21:40.221Z,45.20
2022-10-11T23:28:25.570Z,45.35
2022-10-11T23:35:13.677Z,45.35
2022-10-11T23:41:59.468Z,45.31
2022-10-11T23:48:44.966Z,45.25
2022-10-11T23:55:32.911Z,45.36
